Time;durP1;ratioP1;P1;durP2;ratioP2;P2;SDS_P1;SDS_P2;PMS_P1;PMS_P2;Temp;Humidity;BMP_temperature;BMP_pressure;BME280_temperature;BME280_humidity;BME280_pressure;Samples;Min_cycle;Max_cycle;Signal;HPM_P1;HPM_P2
2022/11/19 00:00:21;;;;;;;88.82;39.47;;;;;;;;;;5074899;28;20116;-78
2022/11/19 00:02:48;;;;;;;73.97;35.72;;;;;;;;;;5074095;28;20020;-77
2022/11/19 00:05:14;;;;;;;75.50;35.22;;;;;;;;;;5074302;28;20063;-77
2022/11/19 00:07:39;;;;;;;64.30;32.38;;;;;;;;;;5074237;28;20056;-77
2022/11/19 00:10:05;;;;;;;69.75;32.78;;;;;;;;;;5077740;28;20031;-77
2022/11/19 00:15:14;;;;;;;67.50;29.83;;;;;;;;;;5074047;28;20028;-76
2022/11/19 00:17:40;;;;;;;68.68;32.05;;;;;;;;;;5074299;28;20414;-77
2022/11/19 00:20:06;;;;;;;63.13;28.75;;;;;;;;;;5056379;28;20514;-77
2022/11/19 00:22:32;;;;;;;59.17;27.63;;;;;;;;;;5056198;28;20440;-78
2022/11/19 00:24:57;;;;;;;59.00;28.95;;;;;;;;;;5074086;28;20021;-77
2022/11/19 00:27:23;;;;;;;56.83;27.42;;;;;;;;;;5055841;28;20127;-77
2022/11/19 00:29:48;;;;;;;53.75;25.58;;;;;;;;;;5076781;28;20086;-76
2022/11/19 00:32:14;;;;;;;54.83;26.73;;;;;;;;;;5079766;28;20410;-77
2022/11/19 00:34:39;;;;;;;56.42;26.15;;;;;;;;;;5074209;28;20031;-77
2022/11/19 00:37:04;;;;;;;50.42;24.90;;;;;;;;;;5074016;28;20021;-78
2022/11/19 00:39:30;;;;;;;57.05;26.60;;;;;;;;;;5073898;28;20362;-77
2022/11/19 00:41:55;;;;;;;51.35;23.58;;;;;;;;;;5073621;28;20457;-77
2022/11/19 00:44:21;;;;;;;46.13;23.35;;;;;;;;;;5073548;28;20020;-77
2022/11/19 00:46:46;;;;;;;49.35;23.35;;;;;;;;;;5073717;28;20076;-77
2022/11/19 00:49:12;;;;;;;53.28;26.00;;;;;;;;;;5073776;28;20040;-78
2022/11/19 00:51:37;;;;;;;50.90;26.38;;;;;;;;;;5078823;28;20040;-77
2022/11/19 00:54:03;;;;;;;51.65;26.77;;;;;;;;;;5058087;28;20086;-76
2022/11/19 00:56:31;;;;;;;44.30;24.88;;;;;;;;;;5073923;28;20037;-77
2022/11/19 00:58:56;;;;;;;39.80;22.15;;;;;;;;;;5073805;28;20431;-77
2022/11/19 01:01:22;;;;;;;39.85;22.33;;;;;;;;;;5073743;28;20029;-77
2022/11/19 01:03:48;;;;;;;38.45;22.85;;;;;;;;;;5074172;28;20402;-76
2022/11/19 01:06:15;;;;;;;37.25;20.98;;;;;;;;;;5073467;28;20067;-77
2022/11/19 01:08:40;;;;;;;34.60;20.58;;;;;;;;;;5055793;28;20115;-77
2022/11/19 01:11:10;;;;;;;34.60;20.75;;;;;;;;;;5075706;28;20051;-77
2022/11/19 01:13:36;;;;;;;30.55;18.92;;;;;;;;;;5086125;28;20036;-78
2022/11/19 01:16:07;;;;;;;30.20;18.58;;;;;;;;;;5057536;28;20029;-77
2022/11/19 01:18:32;;;;;;;31.42;19.35;;;;;;;;;;5055810;28;20024;-76
2022/11/19 01:20:58;;;;;;;29.92;18.65;;;;;;;;;;5073458;28;20511;-77
2022/11/19 01:23:23;;;;;;;28.30;17.65;;;;;;;;;;5073371;28;20103;-77
2022/11/19 01:25:49;;;;;;;28.55;18.05;;;;;;;;;;5073279;28;20036;-77
2022/11/19 01:28:14;;;;;;;24.27;16.30;;;;;;;;;;5055156;28;20363;-77
2022/11/19 01:30:40;;;;;;;26.73;16.10;;;;;;;;;;5073333;28;20493;-76
2022/11/19 01:33:06;;;;;;;23.95;15.60;;;;;;;;;;5060348;28;20084;-77
2022/11/19 01:35:33;;;;;;;27.45;16.65;;;;;;;;;;5076033;28;20327;-77
2022/11/19 01:38:00;;;;;;;26.70;15.90;;;;;;;;;;5039795;28;20024;-77
2022/11/19 01:40:29;;;;;;;24.10;15.43;;;;;;;;;;5055608;28;20024;-76
2022/11/19 01:42:54;;;;;;;23.48;15.15;;;;;;;;;;5073349;28;20066;-77
2022/11/19 01:45:32;;;;;;;21.33;14.38;;;;;;;;;;5073221;28;20060;-77
2022/11/19 01:48:19;;;;;;;21.05;14.10;;;;;;;;;;5055550;28;20025;-77
2022/11/19 01:50:50;;;;;;;24.50;14.32;;;;;;;;;;5056832;28;20024;-77
2022/11/19 01:53:15;;;;;;;20.98;13.98;;;;;;;;;;5057721;28;20369;-77
2022/11/19 01:55:42;;;;;;;23.25;14.95;;;;;;;;;;5083180;28;20052;-76
2022/11/19 01:58:07;;;;;;;23.92;14.13;;;;;;;;;;5070407;28;20032;-77
2022/11/19 02:00:33;;;;;;;20.88;14.43;;;;;;;;;;5045003;28;20362;-77
2022/11/19 02:02:59;;;;;;;19.00;13.40;;;;;;;;;;5059070;28;20430;-76
2022/11/19 02:05:24;;;;;;;20.67;13.50;;;;;;;;;;5076528;28;20025;-77
2022/11/19 02:07:55;;;;;;;20.80;11.82;;;;;;;;;;5058677;28;20029;-76
2022/11/19 02:10:23;;;;;;;;;;;;;;;;;;5077045;28;20016;-76
2022/11/19 02:13:00;;;;;;;19.83;13.20;;;;;;;;;;5058529;28;19970;-76
2022/11/19 02:15:44;;;;;;;20.10;12.35;;;;;;;;;;5064514;28;20024;-75
2022/11/19 02:18:48;;;;;;;19.42;12.75;;;;;;;;;;5076686;28;20039;-77
2022/11/19 02:21:27;;;;;;;15.48;11.32;;;;;;;;;;5018816;28;20036;-77
2022/11/19 02:24:21;;;;;;;16.88;10.77;;;;;;;;;;5043384;28;20021;-77
2022/11/19 02:27:24;;;;;;;16.50;10.40;;;;;;;;;;5076120;28;20037;-77
2022/11/19 02:30:01;;;;;;;17.23;10.10;;;;;;;;;;5076189;28;20035;-77
2022/11/19 02:32:43;;;;;;;15.32;10.00;;;;;;;;;;5076226;28;20031;-77
2022/11/19 02:35:23;;;;;;;14.75;9.60;;;;;;;;;;5049901;28;20070;-77
2022/11/19 02:37:55;;;;;;;13.77;9.80;;;;;;;;;;5058046;28;20062;-77
2022/11/19 02:40:37;;;;;;;16.98;9.30;;;;;;;;;;5058448;28;20048;-77
2022/11/19 02:43:22;;;;;;;17.48;9.90;;;;;;;;;;5058164;28;20028;-77
2022/11/19 02:45:53;;;;;;;17.23;9.65;;;;;;;;;;5075651;28;20416;-77
2022/11/19 02:48:23;;;;;;;13.77;9.05;;;;;;;;;;5058239;28;20060;-76
2022/11/19 02:50:53;;;;;;;11.70;8.05;;;;;;;;;;5057838;28;20047;-77
2022/11/19 02:53:20;;;;;;;10.85;8.02;;;;;;;;;;5043907;28;20115;-77
2022/11/19 02:56:09;;;;;;;11.35;8.40;;;;;;;;;;5063148;28;20035;-78
2022/11/19 03:04:31;;;;;;;11.00;8.05;;;;;;;;;;5060434;28;20027;-78
2022/11/19 03:07:08;;;;;;;11.45;8.15;;;;;;;;;;5043381;28;20032;-78
2022/11/19 03:09:36;;;;;;;13.10;9.63;;;;;;;;;;5024592;28;20032;-77
2022/11/19 03:12:34;;;;;;;11.82;9.13;;;;;;;;;;5041011;28;20098;-77
2022/11/19 03:18:05;;;;;;;13.85;8.52;;;;;;;;;;5047794;28;20646;-77
2022/11/19 03:20:34;;;;;;;11.32;9.05;;;;;;;;;;5075214;28;20033;-77
2022/11/19 03:23:18;;;;;;;13.70;9.27;;;;;;;;;;5057467;28;20054;-77
2022/11/19 03:25:44;;;;;;;11.27;8.65;;;;;;;;;;5056864;28;20028;-76
2022/11/19 03:28:15;;;;;;;11.80;9.65;;;;;;;;;;5057560;28;20032;-77
2022/11/19 03:30:41;;;;;;;14.82;9.85;;;;;;;;;;5073975;28;20362;-77
2022/11/19 03:33:09;;;;;;;12.60;9.68;;;;;;;;;;5040657;28;20033;-77
2022/11/19 03:35:40;;;;;;;11.93;9.48;;;;;;;;;;5041092;28;20457;-77
2022/11/19 03:38:07;;;;;;;13.77;9.75;;;;;;;;;;5043262;28;20028;-77
2022/11/19 03:40:33;;;;;;;13.40;10.23;;;;;;;;;;5073722;28;20025;-76
2022/11/19 03:42:59;;;;;;;14.18;10.02;;;;;;;;;;5074824;28;20460;-77
2022/11/19 03:45:26;;;;;;;14.80;10.75;;;;;;;;;;5056798;28;20032;-78
2022/11/19 03:47:51;;;;;;;14.68;10.85;;;;;;;;;;5057286;28;20043;-79
2022/11/19 03:50:32;;;;;;;14.75;11.05;;;;;;;;;;5057284;28;20430;-77
2022/11/19 03:52:58;;;;;;;;;;;;;;;;;;5057149;28;20035;-77
2022/11/19 03:55:29;;;;;;;13.57;10.45;;;;;;;;;;5074564;28;19913;-77
2022/11/19 03:58:02;;;;;;;14.75;11.20;;;;;;;;;;5031619;28;20033;-78
2022/11/19 04:00:28;;;;;;;18.75;11.07;;;;;;;;;;5040848;28;20029;-78
2022/11/19 04:02:54;;;;;;;16.55;12.13;;;;;;;;;;5056516;28;20119;-77
2022/11/19 04:05:19;;;;;;;21.45;12.32;;;;;;;;;;5074270;28;20442;-77
2022/11/19 04:07:45;;;;;;;23.30;15.15;;;;;;;;;;5074080;28;20351;-77
2022/11/19 04:10:10;;;;;;;21.67;14.00;;;;;;;;;;5074117;28;20028;-78
2022/11/19 04:12:36;;;;;;;19.45;13.02;;;;;;;;;;5056426;28;20021;-77
2022/11/19 04:15:01;;;;;;;39.58;24.30;;;;;;;;;;5074188;28;20036;-77
2022/11/19 04:17:27;;;;;;;20.98;14.18;;;;;;;;;;5074369;28;20181;-76
2022/11/19 04:19:52;;;;;;;21.02;12.88;;;;;;;;;;5058698;28;20032;-78
2022/11/19 04:22:18;;;;;;;18.90;11.70;;;;;;;;;;5073828;28;20029;-77
2022/11/19 04:24:43;;;;;;;22.05;13.55;;;;;;;;;;5074148;28;20368;-77
2022/11/19 04:27:09;;;;;;;20.45;13.68;;;;;;;;;;5074469;28;20527;-78
2022/11/19 04:29:34;;;;;;;26.13;14.00;;;;;;;;;;5074001;28;20063;-77
2022/11/19 04:31:59;;;;;;;18.88;14.93;;;;;;;;;;5074255;28;20051;-78
2022/11/19 04:34:25;;;;;;;20.23;13.85;;;;;;;;;;5074086;28;20449;-77
2022/11/19 04:36:50;;;;;;;20.38;14.57;;;;;;;;;;5056684;28;20361;-78
2022/11/19 04:39:16;;;;;;;20.27;13.77;;;;;;;;;;5076628;28;20078;-77
2022/11/19 04:41:41;;;;;;;20.35;13.48;;;;;;;;;;5059798;28;20032;-77
2022/11/19 04:44:07;;;;;;;18.80;12.40;;;;;;;;;;5074314;28;20021;-76
2022/11/19 04:46:33;;;;;;;18.33;12.07;;;;;;;;;;5074210;28;20062;-78
2022/11/19 04:48:58;;;;;;;17.35;12.40;;;;;;;;;;5073758;28;20028;-77
2022/11/19 04:51:24;;;;;;;17.70;11.98;;;;;;;;;;5055681;28;20078;-77
2022/11/19 04:53:49;;;;;;;17.17;12.48;;;;;;;;;;5055875;28;20025;-77
2022/11/19 04:56:15;;;;;;;18.45;13.45;;;;;;;;;;5055862;28;20061;-77
2022/11/19 04:58:40;;;;;;;20.02;14.10;;;;;;;;;;5041243;28;20039;-77
2022/11/19 05:01:06;;;;;;;21.50;14.40;;;;;;;;;;5076080;28;20161;-77
2022/11/19 05:03:31;;;;;;;21.65;14.82;;;;;;;;;;5073865;28;20450;-76
2022/11/19 05:05:57;;;;;;;21.52;14.88;;;;;;;;;;5075091;28;20031;-76
2022/11/19 05:08:23;;;;;;;22.00;15.70;;;;;;;;;;5080145;28;20495;-76
2022/11/19 05:10:48;;;;;;;19.10;13.38;;;;;;;;;;5074023;28;20411;-76
2022/11/19 05:13:13;;;;;;;17.75;12.35;;;;;;;;;;5056222;28;20025;-77
2022/11/19 05:15:39;;;;;;;16.10;11.88;;;;;;;;;;5073653;28;20459;-77
2022/11/19 05:18:04;;;;;;;15.23;11.32;;;;;;;;;;5073592;28;20013;-77
2022/11/19 05:20:30;;;;;;;17.40;11.27;;;;;;;;;;5075510;28;20032;-78
2022/11/19 05:22:55;;;;;;;14.57;11.23;;;;;;;;;;5046530;28;20052;-76
2022/11/19 05:25:21;;;;;;;14.55;10.85;;;;;;;;;;5056343;28;20024;-77
2022/11/19 05:27:46;;;;;;;15.05;10.48;;;;;;;;;;5073290;28;20556;-79
2022/11/19 05:30:12;;;;;;;15.70;10.05;;;;;;;;;;5077736;28;20050;-76
2022/11/19 05:32:37;;;;;;;14.88;10.35;;;;;;;;;;5077173;28;20021;-76
2022/11/19 05:35:04;;;;;;;12.77;9.90;;;;;;;;;;5076886;28;20024;-76
2022/11/19 05:37:29;;;;;;;13.82;10.13;;;;;;;;;;5042939;28;20020;-76
2022/11/19 05:39:55;;;;;;;13.05;10.00;;;;;;;;;;5060480;28;20440;-77
2022/11/19 05:42:20;;;;;;;13.70;9.98;;;;;;;;;;5086561;28;20025;-76
2022/11/19 05:44:45;;;;;;;14.60;10.02;;;;;;;;;;5077394;28;20119;-76
2022/11/19 05:47:11;;;;;;;13.85;9.40;;;;;;;;;;5076753;28;20060;-76
2022/11/19 05:49:36;;;;;;;12.63;10.10;;;;;;;;;;5058813;28;20032;-76
2022/11/19 05:52:02;;;;;;;13.98;10.55;;;;;;;;;;5077375;28;20032;-78
2022/11/19 05:54:27;;;;;;;17.08;10.85;;;;;;;;;;5077307;28;20021;-76
2022/11/19 05:56:53;;;;;;;15.10;10.18;;;;;;;;;;5077055;28;20017;-76
2022/11/19 05:59:19;;;;;;;16.45;10.20;;;;;;;;;;5059148;28;20027;-77
2022/11/19 06:01:44;;;;;;;14.50;9.60;;;;;;;;;;5059411;28;20024;-76
2022/11/19 06:04:10;;;;;;;19.52;13.05;;;;;;;;;;5067346;28;20190;-76
2022/11/19 06:06:35;;;;;;;20.58;14.80;;;;;;;;;;5077165;28;20068;-76
2022/11/19 06:09:01;;;;;;;26.35;18.00;;;;;;;;;;5076861;28;20024;-76
2022/11/19 06:14:10;;;;;;;22.88;15.70;;;;;;;;;;5076489;28;20036;-76
2022/11/19 06:16:36;;;;;;;24.65;15.95;;;;;;;;;;5076662;28;20028;-76
2022/11/19 06:19:01;;;;;;;36.05;23.40;;;;;;;;;;5076042;28;20025;-79
2022/11/19 06:21:27;;;;;;;49.58;25.98;;;;;;;;;;5076640;28;20082;-77
2022/11/19 06:23:52;;;;;;;37.42;21.05;;;;;;;;;;5082299;28;20029;-76
2022/11/19 06:26:25;;;;;;;23.70;14.63;;;;;;;;;;5078129;28;20024;-79
2022/11/19 06:28:50;;;;;;;22.80;14.60;;;;;;;;;;5058866;28;20028;-77
2022/11/19 06:31:16;;;;;;;27.52;16.95;;;;;;;;;;5041793;28;20446;-77
2022/11/19 06:33:42;;;;;;;28.08;18.25;;;;;;;;;;5041473;28;20031;-77
2022/11/19 06:36:07;;;;;;;26.27;17.20;;;;;;;;;;5058348;28;20032;-76
2022/11/19 06:38:33;;;;;;;26.13;15.98;;;;;;;;;;5075941;28;20139;-76
2022/11/19 06:40:58;;;;;;;21.73;13.95;;;;;;;;;;5075562;28;20051;-76
2022/11/19 06:43:24;;;;;;;19.85;13.77;;;;;;;;;;5075668;28;20024;-78
2022/11/19 06:45:49;;;;;;;22.02;14.15;;;;;;;;;;5063491;28;20032;-77
2022/11/19 06:48:15;;;;;;;25.92;18.92;;;;;;;;;;5075946;28;20025;-77
2022/11/19 06:50:41;;;;;;;28.83;20.17;;;;;;;;;;5058224;28;20115;-77
2022/11/19 06:53:07;;;;;;;45.90;27.10;;;;;;;;;;5058202;28;20139;-77
2022/11/19 06:55:32;;;;;;;30.65;18.40;;;;;;;;;;5075773;28;20024;-77
2022/11/19 06:58:02;;;;;;;25.25;14.95;;;;;;;;;;5075327;28;20028;-76
2022/11/19 07:00:27;;;;;;;22.60;15.35;;;;;;;;;;5075628;28;20424;-76
2022/11/19 07:02:53;;;;;;;19.95;12.18;;;;;;;;;;5075340;28;20032;-76
2022/11/19 07:05:19;;;;;;;15.88;11.35;;;;;;;;;;5061564;28;20032;-77
2022/11/19 07:07:44;;;;;;;17.25;11.10;;;;;;;;;;5079917;28;20404;-77
2022/11/19 07:10:09;;;;;;;21.10;12.63;;;;;;;;;;5075782;28;20468;-77
2022/11/19 07:12:35;;;;;;;54.92;26.38;;;;;;;;;;5057755;28;20032;-77
2022/11/19 07:15:01;;;;;;;47.05;25.55;;;;;;;;;;5075384;28;20025;-78
2022/11/19 07:17:26;;;;;;;26.38;14.82;;;;;;;;;;5057150;28;20063;-78
2022/11/19 07:19:52;;;;;;;23.38;13.25;;;;;;;;;;5040789;28;20024;-77
2022/11/19 07:22:17;;;;;;;19.85;12.40;;;;;;;;;;5057826;28;20339;-77
2022/11/19 07:24:43;;;;;;;17.98;11.02;;;;;;;;;;5074927;28;20158;-77
2022/11/19 07:27:09;;;;;;;17.25;11.13;;;;;;;;;;5064619;28;20099;-77
2022/11/19 07:29:37;;;;;;;17.83;11.30;;;;;;;;;;5075955;28;20039;-77
2022/11/19 07:32:04;;;;;;;18.85;11.55;;;;;;;;;;5074951;28;20111;-77
2022/11/19 07:34:29;;;;;;;14.50;10.93;;;;;;;;;;5074995;28;20056;-77
2022/11/19 07:36:55;;;;;;;18.20;10.93;;;;;;;;;;5074905;28;20060;-78
2022/11/19 07:39:20;;;;;;;15.68;11.48;;;;;;;;;;5075148;28;20031;-77
2022/11/19 07:44:30;;;;;;;18.73;11.20;;;;;;;;;;5074652;28;20063;-78
2022/11/19 07:46:55;;;;;;;19.00;11.85;;;;;;;;;;5076112;28;20048;-77
2022/11/19 07:49:20;;;;;;;19.60;11.82;;;;;;;;;;5076079;28;20028;-77
2022/11/19 07:51:46;;;;;;;14.43;9.65;;;;;;;;;;5076332;28;20028;-77
2022/11/19 07:54:13;;;;;;;13.50;10.07;;;;;;;;;;5037046;28;20036;-79
2022/11/19 07:56:38;;;;;;;14.98;9.43;;;;;;;;;;5057144;28;20412;-78
2022/11/19 07:59:04;;;;;;;14.73;9.00;;;;;;;;;;5080492;28;20116;-78
2022/11/19 08:01:29;;;;;;;12.90;8.80;;;;;;;;;;5075152;28;20690;-79
2022/11/19 08:03:55;;;;;;;10.18;7.95;;;;;;;;;;5074191;28;20032;-78
2022/11/19 08:06:21;;;;;;;14.23;7.40;;;;;;;;;;5056954;28;20362;-78
2022/11/19 08:08:47;;;;;;;8.52;6.30;;;;;;;;;;5054504;28;20024;-78
2022/11/19 08:11:13;;;;;;;8.95;6.18;;;;;;;;;;5056951;28;20186;-78
2022/11/19 08:13:39;;;;;;;8.95;6.63;;;;;;;;;;5055210;28;20154;-78
2022/11/19 08:16:10;;;;;;;9.25;7.15;;;;;;;;;;5044311;28;20060;-78
2022/11/19 08:18:35;;;;;;;13.82;7.55;;;;;;;;;;5077658;28;20105;-78
2022/11/19 08:21:08;;;;;;;15.77;6.50;;;;;;;;;;5072852;28;20130;-78
2022/11/19 08:23:34;;;;;;;8.68;6.60;;;;;;;;;;5072682;28;20039;-78
2022/11/19 08:26:00;;;;;;;9.35;6.40;;;;;;;;;;5072177;28;20040;-78
2022/11/19 08:28:26;;;;;;;7.88;6.43;;;;;;;;;;5072224;28;20581;-77
2022/11/19 08:30:51;;;;;;;6.72;5.30;;;;;;;;;;5080566;28;20350;-78
2022/11/19 08:33:17;;;;;;;6.78;5.55;;;;;;;;;;5072269;28;20476;-78
2022/11/19 08:35:42;;;;;;;8.35;5.47;;;;;;;;;;5072873;28;20081;-78
2022/11/19 08:38:08;;;;;;;6.80;5.18;;;;;;;;;;5073166;28;20025;-78
2022/11/19 08:40:34;;;;;;;7.32;5.53;;;;;;;;;;5055818;28;20028;-78
2022/11/19 08:42:59;;;;;;;6.50;5.20;;;;;;;;;;5073609;28;20032;-79
2022/11/19 08:45:36;;;;;;;6.78;5.35;;;;;;;;;;5073318;28;20086;-78
2022/11/19 08:48:03;;;;;;;8.10;5.57;;;;;;;;;;5063934;28;20390;-78
2022/11/19 08:50:30;;;;;;;8.45;5.00;;;;;;;;;;5084903;28;20083;-78
2022/11/19 08:52:57;;;;;;;5.40;4.65;;;;;;;;;;5090755;28;20021;-77
2022/11/19 08:55:23;;;;;;;6.30;5.00;;;;;;;;;;5090464;28;20138;-76
2022/11/19 08:57:49;;;;;;;10.27;5.63;;;;;;;;;;5055487;28;20525;-78
2022/11/19 09:00:15;;;;;;;8.23;4.82;;;;;;;;;;5072236;28;20058;-77
2022/11/19 09:02:40;;;;;;;10.10;5.78;;;;;;;;;;5087856;28;20034;-78
2022/11/19 09:05:06;;;;;;;10.18;6.00;;;;;;;;;;5094824;28;20119;-77
2022/11/19 09:07:31;;;;;;;11.18;6.55;;;;;;;;;;5095026;28;20063;-78
2022/11/19 09:09:57;;;;;;;8.98;5.20;;;;;;;;;;5094067;28;20054;-78
2022/11/19 09:12:22;;;;;;;6.07;4.15;;;;;;;;;;5097151;28;20024;-77
2022/11/19 09:14:49;;;;;;;6.05;4.05;;;;;;;;;;5095800;28;20074;-78
2022/11/19 09:17:15;;;;;;;7.38;4.35;;;;;;;;;;5094843;28;20024;-77
2022/11/19 09:19:40;;;;;;;5.63;4.32;;;;;;;;;;5095485;28;20035;-77
2022/11/19 09:22:05;;;;;;;5.70;3.63;;;;;;;;;;5094999;28;20437;-78
2022/11/19 09:24:31;;;;;;;15.20;8.70;;;;;;;;;;5094718;28;20110;-77
2022/11/19 09:26:56;;;;;;;12.00;6.88;;;;;;;;;;5095320;28;20458;-77
2022/11/19 09:29:22;;;;;;;11.70;8.48;;;;;;;;;;5096086;28;20365;-78
2022/11/19 09:31:47;;;;;;;8.50;5.93;;;;;;;;;;5098515;28;20043;-78
2022/11/19 09:34:13;;;;;;;30.52;20.63;;;;;;;;;;5098186;28;20024;-77
2022/11/19 09:36:38;;;;;;;15.98;9.50;;;;;;;;;;5044697;28;20081;-78
2022/11/19 09:39:04;;;;;;;4.70;3.67;;;;;;;;;;5097034;28;20067;-77
2022/11/19 09:41:44;;;;;;;5.63;3.70;;;;;;;;;;5078794;28;20027;-77
2022/11/19 09:44:34;;;;;;;8.43;3.67;;;;;;;;;;5078625;28;20032;-77
2022/11/19 09:47:25;;;;;;;7.05;3.90;;;;;;;;;;5078850;28;20047;-77
2022/11/19 09:49:57;;;;;;;5.97;3.38;;;;;;;;;;5096844;28;20536;-77
2022/11/19 09:52:22;;;;;;;4.45;3.30;;;;;;;;;;5079811;28;20058;-76
2022/11/19 09:54:50;;;;;;;7.38;4.00;;;;;;;;;;5064589;28;20028;-79
2022/11/19 09:57:20;;;;;;;5.75;4.28;;;;;;;;;;5078275;28;20134;-77
2022/11/19 09:59:46;;;;;;;4.22;3.58;;;;;;;;;;5045760;28;20426;-77
2022/11/19 10:02:21;;;;;;;7.28;3.30;;;;;;;;;;5078319;28;20078;-77
2022/11/19 10:04:48;;;;;;;4.35;2.97;;;;;;;;;;5058393;28;20460;-77
2022/11/19 10:07:37;;;;;;;4.28;2.67;;;;;;;;;;5057971;28;20024;-77
2022/11/19 10:10:40;;;;;;;6.20;4.22;;;;;;;;;;5074630;28;20029;-76
2022/11/19 10:13:13;;;;;;;4.70;4.28;;;;;;;;;;5037470;28;20031;-77
2022/11/19 10:15:51;;;;;;;6.75;2.28;;;;;;;;;;5055361;28;20032;-77
2022/11/19 10:18:39;;;;;;;3.80;3.28;;;;;;;;;;5074196;28;20031;-78
2022/11/19 10:21:18;;;;;;;3.38;2.72;;;;;;;;;;5074371;28;20295;-77
2022/11/19 10:23:51;;;;;;;3.10;2.50;;;;;;;;;;5055745;28;20339;-77
2022/11/19 10:26:18;;;;;;;4.28;3.03;;;;;;;;;;5039396;28;20063;-78
2022/11/19 10:28:55;;;;;;;4.18;3.00;;;;;;;;;;5055359;28;20027;-77
2022/11/19 10:31:27;;;;;;;4.25;3.25;;;;;;;;;;5039197;28;20051;-78
2022/11/19 10:34:10;;;;;;;4.47;2.50;;;;;;;;;;5056585;28;20030;-77
2022/11/19 10:36:41;;;;;;;5.30;3.00;;;;;;;;;;5027033;28;20074;-77
2022/11/19 10:39:19;;;;;;;4.78;3.20;;;;;;;;;;5056016;28;20024;-78
2022/11/19 10:41:48;;;;;;;3.47;2.80;;;;;;;;;;5041340;28;20086;-77
2022/11/19 10:44:36;;;;;;;5.90;2.57;;;;;;;;;;5040983;28;20028;-78
2022/11/19 10:47:03;;;;;;;2.50;2.30;;;;;;;;;;5057381;28;20370;-77
2022/11/19 10:49:28;;;;;;;3.67;2.08;;;;;;;;;;5076269;28;20028;-77
2022/11/19 10:51:54;;;;;;;4.35;2.55;;;;;;;;;;5057237;28;20028;-78
2022/11/19 10:54:24;;;;;;;2.80;2.50;;;;;;;;;;5076118;28;20111;-77
2022/11/19 10:56:49;;;;;;;;;;;;;;;;;;5066282;28;20024;-80
2022/11/19 10:59:23;;;;;;;7.10;2.50;;;;;;;;;;5057866;28;20334;-79
2022/11/19 11:01:55;;;;;;;3.90;1.90;;;;;;;;;;5057801;28;20298;-78
2022/11/19 11:04:24;;;;;;;2.45;2.20;;;;;;;;;;5041292;28;20067;-78
2022/11/19 11:07:02;;;;;;;4.05;2.28;;;;;;;;;;5075458;28;20035;-77
2022/11/19 11:09:40;;;;;;;3.35;2.20;;;;;;;;;;5057716;28;20078;-78
2022/11/19 11:15:26;;;;;;;8.10;2.30;;;;;;;;;;5060449;28;20366;-77
2022/11/19 11:18:05;;;;;;;3.65;2.20;;;;;;;;;;5048808;28;20063;-77
2022/11/19 11:20:30;;;;;;;2.05;1.88;;;;;;;;;;5041421;28;20466;-77
2022/11/19 11:23:03;;;;;;;3.92;2.13;;;;;;;;;;5057318;28;20039;-78
2022/11/19 11:25:28;;;;;;;5.40;2.47;;;;;;;;;;5065059;28;20386;-78
2022/11/19 11:28:03;;;;;;;5.03;2.58;;;;;;;;;;5057340;28;20048;-78
2022/11/19 11:30:28;;;;;;;4.47;2.95;;;;;;;;;;5075070;28;20111;-79
2022/11/19 11:32:54;;;;;;;2.67;2.03;;;;;;;;;;5075220;28;20407;-78
2022/11/19 11:35:30;;;;;;;4.10;2.05;;;;;;;;;;5075255;28;20039;-78
2022/11/19 11:37:56;;;;;;;4.45;2.05;;;;;;;;;;5049861;28;20124;-77
2022/11/19 11:40:22;;;;;;;4.13;2.30;;;;;;;;;;5057397;28;20479;-78
2022/11/19 11:42:47;;;;;;;5.78;2.88;;;;;;;;;;5056888;28;20024;-77
2022/11/19 11:45:31;;;;;;;5.18;2.78;;;;;;;;;;5074696;28;20044;-78
2022/11/19 11:47:58;;;;;;;4.18;2.85;;;;;;;;;;5074514;28;20051;-78
2022/11/19 11:50:24;;;;;;;5.18;2.85;;;;;;;;;;5056894;28;20462;-78
2022/11/19 11:52:51;;;;;;;3.50;2.70;;;;;;;;;;5040153;28;20021;-79
2022/11/19 11:55:22;;;;;;;4.70;2.42;;;;;;;;;;5056819;28;20025;-78
2022/11/19 11:58:04;;;;;;;2.90;2.30;;;;;;;;;;5079809;28;20035;-77
2022/11/19 12:00:41;;;;;;;4.40;2.78;;;;;;;;;;5058061;28;20028;-79
2022/11/19 12:03:11;;;;;;;5.22;3.00;;;;;;;;;;5074422;28;20020;-77
2022/11/19 12:06:09;;;;;;;10.85;3.65;;;;;;;;;;5074437;28;20077;-78
2022/11/19 12:08:59;;;;;;;7.50;4.28;;;;;;;;;;5056584;28;20094;-78
2022/11/19 12:14:24;;;;;;;12.38;6.47;;;;;;;;;;5074391;28;20039;-78
2022/11/19 12:16:55;;;;;;;13.43;6.68;;;;;;;;;;5048978;28;20024;-77
2022/11/19 12:19:40;;;;;;;17.70;5.82;;;;;;;;;;5082439;28;20081;-78
2022/11/19 12:22:15;;;;;;;10.70;5.10;;;;;;;;;;5095817;28;20035;-77
2022/11/19 12:25:05;;;;;;;10.00;4.85;;;;;;;;;;5094893;28;20645;-78
2022/11/19 12:27:44;;;;;;;7.82;3.47;;;;;;;;;;5094535;28;20078;-78
2022/11/19 12:30:18;;;;;;;5.50;3.20;;;;;;;;;;5059300;28;20465;-78
2022/11/19 12:33:03;;;;;;;10.30;3.92;;;;;;;;;;5094287;28;20093;-78
2022/11/19 12:35:31;;;;;;;6.65;3.47;;;;;;;;;;5092936;28;20173;-78
2022/11/19 12:38:19;;;;;;;5.78;3.15;;;;;;;;;;5057486;28;20040;-78
2022/11/19 12:40:59;;;;;;;7.13;3.15;;;;;;;;;;5100508;28;20031;-78
2022/11/19 12:43:44;;;;;;;5.35;3.55;;;;;;;;;;5059146;28;20031;-79
2022/11/19 12:46:48;;;;;;;2.97;2.42;;;;;;;;;;5075143;28;20047;-78
2022/11/19 12:49:33;;;;;;;4.13;3.15;;;;;;;;;;5093589;28;20058;-78
2022/11/19 12:52:04;;;;;;;4.50;3.67;;;;;;;;;;5094275;28;20044;-79
2022/11/19 12:54:46;;;;;;;5.80;3.08;;;;;;;;;;5094196;28;20035;-78
2022/11/19 12:57:33;;;;;;;4.38;3.13;;;;;;;;;;5061143;28;20464;-78
2022/11/19 13:00:11;;;;;;;8.70;6.00;;;;;;;;;;5100722;28;20035;-78
2022/11/19 13:03:06;;;;;;;7.55;4.82;;;;;;;;;;5103821;28;20035;-78
2022/11/19 13:05:58;;;;;;;8.80;4.75;;;;;;;;;;5076051;28;20031;-77
2022/11/19 13:08:31;;;;;;;9.95;5.15;;;;;;;;;;5060360;28;20028;-78
2022/11/19 13:11:12;;;;;;;11.10;5.90;;;;;;;;;;5076167;28;20394;-78
2022/11/19 13:13:40;;;;;;;11.77;6.00;;;;;;;;;;5093825;28;20083;-78
2022/11/19 13:16:14;;;;;;;9.43;5.43;;;;;;;;;;5059226;28;20350;-78
2022/11/19 13:18:41;;;;;;;9.45;5.28;;;;;;;;;;5058864;28;20074;-77
2022/11/19 13:21:34;;;;;;;8.80;4.90;;;;;;;;;;5080741;28;20024;-77
2022/11/19 13:24:13;;;;;;;10.40;6.00;;;;;;;;;;5063563;28;20024;-77
2022/11/19 13:26:38;;;;;;;11.63;6.40;;;;;;;;;;5059929;28;20443;-77
2022/11/19 13:29:35;;;;;;;9.13;5.88;;;;;;;;;;5075860;28;20061;-76
2022/11/19 13:32:10;;;;;;;13.88;7.13;;;;;;;;;;5093731;28;20028;-78
2022/11/19 13:35:04;;;;;;;9.40;6.00;;;;;;;;;;5076681;28;20024;-76
2022/11/19 13:38:15;;;;;;;11.40;6.28;;;;;;;;;;5066386;28;20040;-79
2022/11/19 13:40:51;;;;;;;9.68;6.30;;;;;;;;;;5067915;28;20461;-79
2022/11/19 13:46:04;;;;;;;14.68;8.13;;;;;;;;;;5064316;28;20082;-76
2022/11/19 13:48:50;;;;;;;14.25;8.60;;;;;;;;;;5094038;28;20473;-76
2022/11/19 13:51:37;;;;;;;13.63;8.40;;;;;;;;;;5081922;28;20024;-75
2022/11/19 13:54:03;;;;;;;13.18;7.38;;;;;;;;;;5063148;28;20441;-77
2022/11/19 13:56:45;;;;;;;7.38;5.38;;;;;;;;;;5062597;28;20036;-78
2022/11/19 13:59:29;;;;;;;9.48;5.65;;;;;;;;;;5097186;28;20420;-78
2022/11/19 14:01:57;;;;;;;11.65;6.28;;;;;;;;;;5067166;28;20031;-78
2022/11/19 14:04:44;;;;;;;11.85;5.70;;;;;;;;;;5105375;28;20311;-78
2022/11/19 14:07:15;;;;;;;8.75;6.22;;;;;;;;;;5097635;28;20028;-78
2022/11/19 14:10:03;;;;;;;9.82;6.60;;;;;;;;;;5097081;28;20081;-77
2022/11/19 14:12:43;;;;;;;9.68;5.97;;;;;;;;;;5097115;28;20123;-78
2022/11/19 14:27:42;;;;;;;12.38;6.22;;;;;;;;;;5100893;28;20527;-78
2022/11/19 14:30:17;;;;;;;9.80;5.60;;;;;;;;;;5097110;28;20032;-77
2022/11/19 14:32:48;;;;;;;10.10;6.78;;;;;;;;;;5080171;28;20449;-78
2022/11/19 14:35:19;;;;;;;;;;;;;;;;;;5092595;28;20016;-78
2022/11/19 14:37:49;;;;;;;23.10;12.45;;;;;;;;;;5083654;28;20014;-77
2022/11/19 14:40:26;;;;;;;21.23;10.05;;;;;;;;;;5078341;28;20032;-77
2022/11/19 14:46:01;;;;;;;20.88;11.32;;;;;;;;;;5101815;28;20059;-77
2022/11/19 14:48:34;;;;;;;22.52;12.25;;;;;;;;;;5097619;28;20039;-77
2022/11/19 14:51:35;;;;;;;18.27;11.07;;;;;;;;;;5061864;28;20028;-77
2022/11/19 14:54:12;;;;;;;17.17;9.70;;;;;;;;;;5062655;28;20028;-79
2022/11/19 14:56:37;;;;;;;16.90;9.77;;;;;;;;;;5079227;28;20023;-77
2022/11/19 14:59:15;;;;;;;16.00;9.88;;;;;;;;;;5077971;28;20433;-78
2022/11/19 15:02:15;;;;;;;18.45;10.85;;;;;;;;;;5095804;28;20088;-78
2022/11/19 15:04:43;;;;;;;18.98;10.57;;;;;;;;;;5077990;28;20138;-77
2022/11/19 15:07:10;;;;;;;16.38;10.13;;;;;;;;;;5068444;28;20052;-78
2022/11/19 15:10:10;;;;;;;16.52;9.90;;;;;;;;;;5079802;28;20456;-78
2022/11/19 15:12:42;;;;;;;20.77;11.90;;;;;;;;;;5081100;28;20028;-78
2022/11/19 15:15:33;;;;;;;22.77;11.45;;;;;;;;;;5077691;28;20482;-78
2022/11/19 15:17:59;;;;;;;22.95;13.68;;;;;;;;;;5063280;28;20244;-78
2022/11/19 15:20:35;;;;;;;21.10;12.90;;;;;;;;;;5077582;28;20119;-78
2022/11/19 15:23:20;;;;;;;20.73;12.82;;;;;;;;;;5077777;28;20028;-77
2022/11/19 15:25:56;;;;;;;22.02;12.57;;;;;;;;;;5095525;28;20371;-78
2022/11/19 15:28:27;;;;;;;20.10;11.63;;;;;;;;;;5065508;28;20096;-78
2022/11/19 15:31:20;;;;;;;18.77;11.27;;;;;;;;;;5095825;28;20047;-78